SWA3176 KMCO-KLAX
Flight info
| Callsign | SWA3176 |
|---|---|
| Flight time | N/A |
| Altitude | 34000 |
| Route | OSPRY1 REMIS Y280 LEV J86 ELP J50 SSO J4 WLVRN ESTWD HLYWD1 |
| Aircraft | B38M/M-SADE2E3GHIJ4J7P2RWZ/LB1D1 |
Departure
| Time | 2026-05-07 20:46 |
|---|---|
| Airport | Orlando International Airport (KMCO) |
Arrival
| Time | N/A |
|---|---|
| Airport | Los Angeles International Airport (KLAX) |
| Time | Latitude | Longitude | Altitude | Speed | Heading |
|---|---|---|---|---|---|
| 2026-05-07 20:31 | 28.43431 | -81.29996 | 98 ft | 0 kts | 284° |
| 2026-05-07 20:34 | 28.43427 | -81.29978 | 97 ft | 4 kts | 281° |
| 2026-05-07 20:34 | 28.43423 | -81.29947 | 97 ft | 4 kts | 275° |
| 2026-05-07 20:34 | 28.43420 | -81.29917 | 98 ft | 4 kts | 278° |
| 2026-05-07 20:34 | 28.43413 | -81.29891 | 98 ft | 4 kts | 318° |
| 2026-05-07 20:35 | 28.43403 | -81.29886 | 97 ft | 1 kts | 0° |
| 2026-05-07 20:35 | 28.43401 | -81.29886 | 97 ft | 0 kts | 0° |
| 2026-05-07 20:41 | 28.43417 | -81.29886 | 98 ft | 6 kts | 359° |
| 2026-05-07 20:41 | 28.43487 | -81.29887 | 99 ft | 15 kts | 1° |
| 2026-05-07 20:41 | 28.43618 | -81.29888 | 98 ft | 23 kts | 359° |
| 2026-05-07 20:41 | 28.43793 | -81.29941 | 98 ft | 29 kts | 329° |
| 2026-05-07 20:42 | 28.43902 | -81.30110 | 102 ft | 29 kts | 273° |
| 2026-05-07 20:42 | 28.43912 | -81.30342 | 104 ft | 31 kts | 272° |
| 2026-05-07 20:42 | 28.43925 | -81.30594 | 108 ft | 33 kts | 274° |
| 2026-05-07 20:42 | 28.43942 | -81.30865 | 108 ft | 36 kts | 274° |
| 2026-05-07 20:43 | 28.43939 | -81.31165 | 111 ft | 40 kts | 265° |
| 2026-05-07 20:43 | 28.43924 | -81.31495 | 107 ft | 44 kts | 270° |
| 2026-05-07 20:43 | 28.43926 | -81.31824 | 102 ft | 38 kts | 287° |
| 2026-05-07 20:43 | 28.44152 | -81.31901 | 100 ft | 38 kts | 0° |
| 2026-05-07 20:44 | 28.44441 | -81.31904 | 100 ft | 45 kts | 1° |
| 2026-05-07 20:44 | 28.44749 | -81.31907 | 100 ft | 37 kts | 359° |
| 2026-05-07 20:44 | 28.44825 | -81.32062 | 100 ft | 26 kts | 269° |
| 2026-05-07 20:44 | 28.44748 | -81.32232 | 102 ft | 32 kts | 184° |
| 2026-05-07 20:45 | 28.44318 | -81.32227 | 102 ft | 90 kts | 179° |
| 2026-05-07 20:45 | 28.43512 | -81.32218 | 102 ft | 139 kts | 179° |
| 2026-05-07 20:45 | 28.42408 | -81.32202 | 128 ft | 173 kts | 179° |
| 2026-05-07 20:45 | 28.41205 | -81.32156 | 568 ft | 177 kts | 180° |
| 2026-05-07 20:46 | 28.39950 | -81.32196 | 975 ft | 183 kts | 198° |
| 2026-05-07 20:46 | 28.38863 | -81.32776 | 1649 ft | 172 kts | 209° |
| 2026-05-07 20:46 | 28.37714 | -81.33447 | 1813 ft | 199 kts | 210° |
| 2026-05-07 20:46 | 28.36419 | -81.34188 | 2135 ft | 219 kts | 210° |
| 2026-05-07 20:47 | 28.35128 | -81.35161 | 2654 ft | 222 kts | 227° |